Columbus, Ohio
Traffic Map
Current Weather Conditions
Columbus, Ohio
Overcast
Overcast
59°
Feels Like: 59°
Wind Chill: 59° Ceiling: 4100
Heat Index: 59° Visibility: 10mi
Dew Point: 52° Wind: 10mph
Humidity: 78% Direction: 340° (NNW)
Pressure: 29.95in Gusts: 0mph
Raw Report DataKCMH 021851Z 34009KT 10SM SCT021 BKN041 OVC050 15/11 A2995 RMK AO2 SLP140 T01500111
Traffic Incident Summary
Active as of:
Severity:
Category:
InformationThere was an issue retrieving the traffic information for this location. Please try a different location or try again shortly.
Advertisements
Track Severe Weather on mobile